Погода Ново Ориентена неделю

Сеара, Бразилия

16 - 22 июня
  • 16июня
    Сегодня
    +21°
    +31°
    Облачно с прояснениями
    ВремяПогодаТемператураВлажностьДавлениеВетер, м/сВероятность осадков
    00:00Пасмурно, дождь+24°C90 %723 мм1.7 м/с96 %
    03:00Пасмурно, небольшой дождь+24°C87 %722 мм2.8 м/с52 %
    06:00Небольшая облачность+23°C82 %722 мм4.0 м/с20 %
    09:00Практически безоблачно+26°C62 %723 мм6.0 м/с2 %
    12:00Небольшая облачность+30°C48 %722 мм7.2 м/с5 %
    15:00Облачно с прояснениями+30°C48 %721 мм6.0 м/с16 %
    18:00Небольшая облачность+28°C62 %721 мм2.4 м/с20 %
    21:00Облачно с прояснениями+25°C74 %722 мм1.5 м/с2 %
  • 17июня
    Понедельник
    +21°
    +32°
    Облачно с прояснениями
    ВремяПогодаТемператураВлажностьДавлениеВетер, м/сВероятность осадков
    00:00Облачно с прояснениями+25°C73 %722 мм1.5 м/с5 %
    03:00Практически безоблачно+23°C76 %721 мм2.3 м/с7 %
    06:00Ясно и безоблачно+22°C82 %721 мм2.2 м/с5 %
    09:00Ясно и безоблачно+26°C63 %722 мм4.9 м/с5 %
    12:00Ясно и безоблачно+29°C46 %721 мм5.2 м/с5 %
    15:00Облачно с прояснениями+31°C45 %720 мм4.7 м/с5 %
    18:00Ясно и безоблачно+28°C60 %720 мм1.9 м/с5 %
    21:00Ясно и безоблачно+25°C75 %721 мм2.0 м/с3 %
  • 18июня
    Вторник
    +21°
    +32°
    Небольшая облачность
    ВремяПогодаТемператураВлажностьДавлениеВетер, м/сВероятность осадков
    00:00Ясно и безоблачно+25°C71 %721 мм0.2 м/с4 %
    03:00Ясно и безоблачно+23°C78 %720 мм2.2 м/с12 %
    06:00Ясно и безоблачно+22°C76 %721 мм2.3 м/с5 %
    09:00Ясно и безоблачно+26°C59 %722 мм4.8 м/с5 %
    12:00Ясно и безоблачно+30°C46 %722 мм5.6 м/с5 %
    15:00Небольшая облачность+32°C42 %720 мм5.2 м/с5 %
    18:00Ясно и безоблачно+28°C54 %720 мм2.8 м/с5 %
    21:00Ясно и безоблачно+25°C72 %721 мм2.0 м/с5 %
  • 19июня
    Среда
    +22°
    +32°
    Ясно и безоблачно
    ВремяПогодаТемператураВлажностьДавлениеВетер, м/сВероятность осадков
    00:00Ясно и безоблачно+24°C77 %721 мм0.2 м/с4 %
    03:00Ясно и безоблачно+22°C83 %720 мм1.6 м/с17 %
    06:00Практически безоблачно+22°C85 %721 мм2.3 м/с13 %
    09:00Практически безоблачно+26°C62 %723 мм6.4 м/с6 %
    12:00Ясно и безоблачно+30°C46 %722 мм6.0 м/с5 %
    15:00Ясно и безоблачно+31°C42 %720 мм5.1 м/с5 %
    18:00Ясно и безоблачно+29°C54 %721 мм2.3 м/с4 %
    21:00Ясно и безоблачно+25°C70 %721 мм2.0 м/с4 %
Мы используем cookies
Соглашаюсь